• Join FlightAware (Why Join?)
  • Login
  • US Flag 
04:39AM EDT


 

Airport Tracker/Info


-or-


 

Live Flight TrackerFlight Track Log ✈ SWA1618 ✈ 26-Oct-2013 ✈ KPHX - KBNA

Flight Track Log - Related Links

Times and Time Zones

All times are in EDT time to prevent confusion due to time zone crossing. See the SWA1618 flight status page for this flight to view local times or setup timezone preferences in your user account.

Time Position Orientation Groundspeed Altitude Reporting Facility
EDT Latitude Longitude Course Direction KTS MPH feet Rate Location/Type
08:35PM 33.4333 -112.0333 248° West 170 196 2,300  Level Phoenix TRACON
08:35PM 33.4167 -112.0833 248° West 204 235 3,400 1,980 Climbing Phoenix TRACON
08:36PM 33.4000 -112.1500 253° West 278 320 5,300 2,460 Climbing Phoenix TRACON
08:37PM 33.3622 -112.1586 191° South 281 323 6,900 3,420 Climbing Albuquerque Center
08:38PM 33.3175 -112.0931 129° Southeast 281 323 10,600 3,060 Climbing Albuquerque Center
08:39PM 33.3394 -111.9928 75° East 323 372 13,200 2,760 Climbing Albuquerque Center
08:40PM 33.3692 -111.8833 72° East 348 400 16,300 2,880 Climbing Albuquerque Center
08:41PM 33.4000 -111.7642 73° East 372 428 19,100 2,280 Climbing Albuquerque Center
08:42PM 33.4336 -111.6383 72° East 396 456 21,000 1,800 Climbing Albuquerque Center
08:43PM 33.4744 -111.4831 72° East 408 470 22,800 1,860 Climbing Albuquerque Center
08:44PM 33.5053 -111.3492 75° East 423 487 24,800 1,920 Climbing Albuquerque Center
08:45PM 33.5222 -111.2014 82° East 451 519 26,800 1,920 Climbing Albuquerque Center
08:46PM 33.5389 -111.0486 83° East 463 533 28,800 1,800 Climbing Albuquerque Center
08:47PM 33.5594 -110.8892 81° East 480 552 30,500 1,920 Climbing Albuquerque Center
08:48PM 33.6058 -110.7411 69° East 477 549 32,800 1,680 Climbing Albuquerque Center
08:49PM 33.6531 -110.5911 69° East 478 550 34,000 1,140 Climbing Albuquerque Center
08:50PM 33.6883 -110.4281 75° East 502 578 35,200 1,200 Climbing Albuquerque Center
08:51PM 33.7239 -110.2469 77° East 512 589 36,500 1,380 Climbing Albuquerque Center
08:52PM 33.7589 -110.0775 76° East 520 598 38,100 1,200 Climbing Albuquerque Center
08:53PM 33.7925 -109.9125 76° East 513 590 39,000 420 Climbing Albuquerque Center
08:54PM 33.8256 -109.7519 76° East 501 577 39,000  Level Albuquerque Center
08:55PM 33.8578 -109.5897 77° East 498 573 39,000  Level Albuquerque Center
08:56PM 33.8897 -109.4286 77° East 497 572 39,000  Level Albuquerque Center
08:57PM 33.9217 -109.2672 77° East 495 570 39,000  Level Albuquerque Center
08:58PM 33.9525 -109.1067 77° East 494 568 39,000  Level Albuquerque Center
08:59PM 33.9828 -108.9436 77° East 495 570 39,000  Level Albuquerque Center
09:00PM 34.0033 -108.7450 83° East 495 570 39,000  Level Albuquerque Center
09:01PM 34.0217 -108.5806 82° East 495 570 39,000  Level Albuquerque Center
09:02PM 34.0350 -108.4378 84° East 495 570 39,000  Level Albuquerque Center
09:03PM 34.0547 -108.2758 82° East 493 567 39,000  Level Albuquerque Center
09:04PM 34.0719 -108.0767 84° East 495 570 39,000  Level Albuquerque Center
09:05PM 34.0897 -107.9111 83° East 499 574 39,000  Level Albuquerque Center
09:06PM 34.1061 -107.7469 83° East 497 572 39,000  Level Albuquerque Center
09:07PM 34.1236 -107.5817 83° East 497 572 39,000  Level Albuquerque Center
09:08PM 34.1394 -107.4156 83° East 500 575 39,000  Level Albuquerque Center
09:09PM 34.1558 -107.2478 83° East 501 577 39,000  Level Albuquerque Center
09:10PM 34.1717 -107.0811 83° East 504 580 39,000  Level Albuquerque Center
09:11PM 34.1867 -106.9167 84° East 500 575 39,000  Level Albuquerque Center
09:12PM 34.2022 -106.7514 83° East 498 573 39,000  Level Albuquerque Center
09:13PM 34.2172 -106.5903 84° East 492 566 39,000  Level Albuquerque Center
09:14PM 34.2350 -106.3956 84° East 490 564 39,000  Level Albuquerque Center
09:15PM 34.2494 -106.2333 84° East 489 563 39,000  Level Albuquerque Center
09:16PM 34.2650 -106.0708 83° East 485 558 39,000  Level Albuquerque Center
09:17PM 34.2783 -105.9069 84° East 485 558 39,000  Level Albuquerque Center
09:18PM 34.2931 -105.7461 84° East 481 554 39,000  Level Albuquerque Center
09:19PM 34.3058 -105.5839 85° East 481 554 39,000  Level Albuquerque Center
09:20PM 34.3194 -105.4211 84° East 483 556 39,000  Level Albuquerque Center
09:21PM 34.3319 -105.2589 85° East 482 555 39,000  Level Albuquerque Center
09:22PM 34.3442 -105.0972 85° East 481 554 39,000  Level Albuquerque Center
09:23PM 34.3575 -104.9372 84° East 478 550 39,000  Level Albuquerque Center
09:24PM 34.3694 -104.7761 85° East 477 549 39,000  Level Albuquerque Center
09:25PM 34.3822 -104.6136 85° East 480 552 39,000  Level Albuquerque Center
09:27PM 34.3981 -104.4556 83° East 475 547 39,000  Level Albuquerque Center
09:28PM 34.4189 -104.2708 82° East 474 545 39,000  Level Albuquerque Center
09:29PM 34.4344 -104.1125 83° East 472 543 39,000  Level Albuquerque Center
09:30PM 34.4492 -103.9558 83° East 469 540 39,000  Level Albuquerque Center
09:31PM 34.4650 -103.8017 83° East 462 532 39,000  Level Albuquerque Center
09:32PM 34.4800 -103.6450 83° East 464 534 39,000  Level Albuquerque Center
09:33PM 34.4947 -103.4892 83° East 464 534 39,000  Level Albuquerque Center
09:34PM 34.5092 -103.3344 83° East 462 532 39,000  Level Albuquerque Center
09:35PM 34.5242 -103.1767 83° East 466 536 39,000  Level Albuquerque Center
09:36PM 34.5389 -103.0189 83° East 468 539 39,000  Level Albuquerque Center
09:37PM 34.5517 -102.8619 84° East 466 536 39,000  Level Albuquerque Center
09:38PM 34.5672 -102.7031 83° East 471 542 39,000  Level Albuquerque Center
09:39PM 34.5808 -102.5439 84° East 469 540 39,000  Level Albuquerque Center
09:40PM 34.5933 -102.3872 84° East 469 540 39,000  Level Albuquerque Center
09:41PM 34.6075 -102.2336 84° East 464 534 39,000  Level Albuquerque Center
09:42PM 34.6186 -102.0800 85° East 461 531 39,000  Level Albuquerque Center
09:43PM 34.6328 -101.9258 84° East 462 532 39,000  Level Albuquerque Center
09:44PM 34.6464 -101.7422 85° East 460 529 39,000  Level Albuquerque Center
09:45PM 34.6600 -101.5872 84° East 463 533 39,000  Level Albuquerque Center
09:46PM 34.6719 -101.4336 85° East 463 533 39,000  Level Albuquerque Center
09:47PM 34.6836 -101.2792 85° East 463 533 39,000  Level Albuquerque Center
09:48PM 34.6953 -101.1233 85° East 464 534 39,000  Level Albuquerque Center
09:49PM 34.7064 -100.9692 85° East 463 533 39,000  Level Albuquerque Center
09:50PM 34.7178 -100.8128 85° East 466 536 39,000  Level Albuquerque Center
09:51PM 34.7286 -100.6581 85° East 463 533 39,000  Level Albuquerque Center
09:52PM 34.7406 -100.5019 85° East 465 535 39,000  Level Albuquerque Center
09:53PM 34.7517 -100.3308 85° East 463 533 39,000  Level Albuquerque Center
09:54PM 34.7625 -100.1742 85° East 465 535 39,000  Level Albuquerque Center
09:55PM 34.7725 -100.0189 85° East 463 533 39,000  Level Albuquerque Center
09:56PM 34.7825 -99.8617 86° East 465 535 39,000  Level Albuquerque Center
09:57PM 34.7953 -99.6731 85° East 466 536 39,000  Level Fort Worth Center
09:58PM 34.8042 -99.5158 86° East 466 536 39,000  Level Fort Worth Center
09:59PM 34.8150 -99.3625 85° East 458 527 39,000  Level Fort Worth Center
10:00PM 34.8228 -99.2033 87° East 468 539 39,000  Level Fort Worth Center
10:01PM 34.8328 -99.0481 85° East 464 534 39,000  Level Fort Worth Center
10:02PM 34.8419 -98.8911 86° East 465 535 39,000  Level Fort Worth Center
10:03PM 34.8503 -98.7342 86° East 466 536 39,000  Level Fort Worth Center
10:04PM 34.8597 -98.5786 86° East 462 532 39,000  Level Fort Worth Center
10:05PM 34.8672 -98.4106 87° East 461 531 39,000  Level Fort Worth Center
10:06PM 34.8742 -98.2567 87° East 458 527 39,000  Level Fort Worth Center
10:07PM 34.8825 -98.1033 86° East 456 525 39,000  Level Fort Worth Center
10:08PM 34.8903 -97.9503 86° East 455 524 39,000  Level Fort Worth Center
10:09PM 34.8975 -97.7942 87° East 463 533 39,000  Level Fort Worth Center
10:10PM 34.9050 -97.6394 87° East 463 533 39,000  Level Fort Worth Center
10:11PM 34.9117 -97.4839 87° East 465 535 39,000  Level Fort Worth Center
10:12PM 34.9183 -97.3303 87° East 461 531 39,000  Level Fort Worth Center
10:13PM 34.9250 -97.1753 87° East 463 533 39,000  Level Fort Worth Center
10:14PM 34.9311 -97.0189 87° East 464 534 39,000  Level Fort Worth Center
10:15PM 34.9372 -96.8628 87° East 467 537 39,000  Level Fort Worth Center
10:16PM 34.9433 -96.7072 87° East 464 534 39,000  Level Fort Worth Center
10:17PM 34.9508 -96.5533 87° East 459 528 39,000  Level Fort Worth Center
10:18PM 34.9558 -96.3972 88° East 465 535 39,000  Level Fort Worth Center
10:19PM 34.9631 -96.2086 87° East 469 540 39,000  Level Fort Worth Center
10:20PM 34.9678 -96.0503 88° East 470 541 39,000  Level Fort Worth Center
10:21PM 34.9731 -95.8908 88° East 470 541 39,000  Level Fort Worth Center
10:22PM 34.9775 -95.7458 88° East 470 541 39,000  Level Fort Worth Center
10:23PM 34.9811 -95.5850 88° East 474 545 39,000  Level Fort Worth Center
10:24PM 34.9867 -95.4236 88° East 476 548 39,000  Level Fort Worth Center
10:25PM 34.9906 -95.2619 88° East 478 550 39,000  Level Fort Worth Center
10:26PM 34.9942 -95.0989 88° East 481 554 39,000  Level Fort Worth Center
10:27PM 34.9986 -94.9342 88° East 485 558 39,000  Level Fort Worth Center
10:28PM 35.0172 -94.7719 82° East 483 556 39,000  Level Fort Worth Center
10:29PM 35.0394 -94.6142 80° East 475 547 39,000  Level Fort Worth Center
10:30PM 35.0617 -94.4542 80° East 478 550 39,000  Level Fort Worth Center
10:31PM 35.0839 -94.2981 80° East 471 542 39,000  Level Fort Worth Center
10:32PM 35.1072 -94.1189 81° East 470 541 39,000  Level Fort Worth Center
10:33PM 35.1297 -93.9625 80° East 471 542 39,000  Level Fort Worth Center
10:34PM 35.1494 -93.8056 81° East 470 541 39,000  Level Fort Worth Center
10:35PM 35.1703 -93.6486 81° East 469 540 39,000  Level Fort Worth Center
10:36PM 35.1892 -93.4947 81° East 464 534 39,000  Level Memphis Center
10:37PM 35.2117 -93.3433 80° East 464 534 39,000  Level Memphis Center
10:38PM 35.2319 -93.1889 81° East 459 528 39,000  Level Memphis Center
10:39PM 35.2519 -93.0344 81° East 459 528 39,000  Level Memphis Center
10:40PM 35.2697 -92.8800 82° East 459 528 39,000  Level Memphis Center
10:41PM 35.2894 -92.7253 81° East 459 528 39,000  Level Memphis Center
10:42PM 35.3072 -92.5503 83° East 472 543 39,000  Level Memphis Center
10:43PM 35.3244 -92.3956 82° East 460 529 39,000  Level Memphis Center
10:44PM 35.3436 -92.2406 81° East 460 529 39,000  Level Memphis Center
10:45PM 35.3625 -92.0883 81° East 460 529 39,000  Level Memphis Center
10:46PM 35.3833 -91.9333 81° East 460 529 39,000  Level Memphis Center
10:47PM 35.4000 -91.7758 83° East 466 536 39,000  Level Memphis Center
10:48PM 35.4161 -91.6181 83° East 466 536 39,000  Level Memphis Center
10:49PM 35.4364 -91.4656 81° East 466 536 39,000  Level Memphis Center
10:50PM 35.4522 -91.3256 82° East 466 536 39,000  Level Memphis Center
10:51PM 35.4700 -91.1678 82° East 466 536 39,000  Level Memphis Center
10:52PM 35.4875 -90.9944 83° East 466 536 39,000  Level Memphis Center
10:53PM 35.5050 -90.8392 82° East 459 528 39,000  Level Memphis Center
10:54PM 35.5222 -90.6811 82° East 468 539 39,000  Level Memphis Center
10:55PM 35.5392 -90.5203 83° East 468 539 39,000  Level Memphis Center
10:56PM 35.5558 -90.3622 83° East 463 533 39,000  Level Memphis Center
10:57PM 35.5725 -90.2014 83° East 463 533 39,000  Level Memphis Center
10:58PM 35.5869 -90.0431 84° East 463 533 39,000  Level Memphis Center
10:59PM 35.6031 -89.8975 82° East 469 540 39,000 -420 Level Memphis Center
11:00PM 35.6169 -89.7417 84° East 463 533 38,200 -900 Descending Memphis Center
11:01PM 35.6328 -89.5831 83° East 463 533 37,200 -960 Descending Memphis Center
11:02PM 35.6483 -89.4244 83° East 463 533 36,300 -1,080 Descending Memphis Center
11:03PM 35.6617 -89.2608 84° East 463 533 35,100 -1,920 Descending Memphis Center
11:04PM 35.6786 -89.0817 83° East 468 539 32,600 -1,920 Descending Memphis Center
11:05PM 35.6875 -88.9308 86° East 481 554 31,300 -1,440 Descending Memphis Center
11:06PM 35.7042 -88.7644 83° East 487 560 29,800 -1,380 Descending Memphis Center
11:07PM 35.7186 -88.6003 84° East 487 560 28,600 -1,200 Descending Memphis Center
11:08PM 35.7331 -88.4517 83° East 459 528 27,400 -1,140 Descending Memphis Center
11:09PM 35.7456 -88.3083 84° East 438 504 26,400 -1,020 Descending Memphis Center
11:10PM 35.7575 -88.1622 84° East 424 488 25,400 -1,260 Descending Memphis Center
11:11PM 35.7697 -88.0286 84° East 405 466 24,000 -1,500 Descending Memphis Center
11:12PM 35.7817 -87.8953 84° East 405 466 22,400 -1,980 Descending Memphis Center
11:13PM 35.7933 -87.7517 84° East 413 475 20,100 -2,160 Descending Memphis Center
11:14PM 35.8031 -87.6158 85° East 407 468 18,100 -1,860 Descending Memphis Center
11:15PM 35.8231 -87.4897 79° East 382 440 16,400 -1,860 Descending Memphis Center
11:16PM 35.8700 -87.3650 65° Northeast 370 426 14,400 -1,920 Descending Memphis Center
11:17PM 35.9092 -87.2508 67° East 358 412 12,600 -2,040 Descending Memphis Center
11:18PM 35.9519 -87.1389 65° Northeast 358 412 10,400 -1,440 Descending Memphis Center
11:19PM 35.9953 -87.0372 62° Northeast 351 404 9,800 -1,140 Descending Memphis Center
11:20PM 36.0322 -86.9408 65° Northeast 323 372 8,200 -1,680 Descending Memphis Center
11:21PM 36.0714 -86.8467 63° Northeast 309 356 6,500 -1,440 Descending Memphis Center
11:22PM 36.1322 -86.7850 39° Northeast 281 323 5,400 -1,320 Descending Memphis Center
11:23PM 36.1978 -86.7536 21° North 256 295 4,000 -1,320 Descending Memphis Center
11:24PM 36.2167 -86.6783 73° East 220 253 2,800 -960 Descending Memphis Center
11:25PM 36.1861 -86.6386 134° Southeast 147 169 2,100 -960 Descending Memphis Center
11:26PM 36.1492 -86.6531 198° South 76 87 900 -660 Descending Memphis Center
11:27PM 36.1322 -86.6436 156° South 81 93 800 4,500 Descending Memphis Center
11:28PM 36.1111 -86.6394 171° South 81 93 10,000 4,560 Climbing Memphis Center
11:29PM 36.0900 -86.6328 166° South 81 93 10,000  Level Memphis Center
11:31PM 36.1167 -86.6667 302° West  Level FlightAware Approximate
11:38PM 36.1245 -86.6782 302° West  Level Estimated
11:39PM 36.1245 -86.6782 302° West  Level Estimated
11:40PM 36.1245 -86.6782 302° West  Level Estimated
11:41PM 36.1245 -86.6782 302° West  Level Estimated
11:42PM 36.1245 -86.6782 302° West  Level Estimated
11:43PM 36.1245 -86.6782 302° West  Level Estimated
11:44PM 36.1245 -86.6782 302° West  Level Estimated
11:45PM 36.1245 -86.6782 302° West  Level Estimated
11:46PM 36.1245 -86.6782 302° West  Level Estimated